Boston, Massachusetts
Traffic Map
Current Weather Conditions
Boston, Massachusetts
Broken Clouds
Broken Clouds
27°
Feels Like: 27°
Wind Chill: 27° Ceiling: 26000
Heat Index: 27° Visibility: 10mi
Dew Point: 12° Wind: 8mph
Humidity: 39% Direction: 270° (W)
Pressure: 30.12in Gusts: 0mph
Raw Report DataKBOS 291854Z 27007KT 10SM FEW060 SCT220 BKN260 27/12 A3012 RMK AO2 SLP198 T02720122
Traffic Incident Summary
Active as of:
Severity:
Category:
InformationThere was an issue retrieving the traffic information for this location. Please try a different location or try again shortly.
Advertisements
Track Severe Weather on mobile